Clyattville, Georgia
Current Conditions -  °F | °C
As of 5:53 AM on Friday 28 Nov 2014 (Local Time) from KVLD Reporting Station
Clear Clear  
Wind Chill: 34°   Ceiling: Unl
Heat Index: 34°   Visibility: 10mi
Dew Point: 29°   Wind: 3mph
Humidity: 82%   Direction: NA
Pressure: 30.36"   Gusts: NA
Location:  30.7579°N, 83.3062°W
Report Text: KVLD 281053Z AUTO VRB03KT 10SM CLR 01/M02 A3036 RMK AO2 SLP290 T00111017
Loading
Personal Weather Stations






























Interactive Weather Map New forecast layout! Learn more

10-Day Weather Forecast

Advertisements
Track Severe Weather on mobile